12/03/05 - 10h:23mDenunciar

Northrop F-5E Tiger II

Foto de Th Sevthal, retirada do site Airliners.net.



METAR SBPB 121400Z 07012KT 9999 SCT017 SCT100 BKN300 33/27 Q1012=

Comentários (0)

Fotos postadas a mais de 15 dias não podem receber comentários.